createdAt,value
2022-08-30T03:48:55.993Z,0.01
2022-08-30T03:55:47.201Z,0.02
2022-08-30T03:58:38.709Z,0.03
2022-08-30T04:01:16.295Z,0.05
2022-08-30T04:03:39.554Z,0.07
2022-08-30T04:05:48.645Z,0.12
2022-08-30T04:08:46.509Z,0.2
2022-08-30T04:11:30.195Z,0.31
2022-08-30T04:13:59.648Z,0.5
2022-08-30T04:16:14.885Z,0.69
2022-08-30T04:18:15.967Z,0.9
2022-08-30T04:21:05.765Z,1.33
2022-08-30T04:23:41.362Z,1.86
2022-08-30T04:26:02.966Z,2.59
2022-08-30T04:28:10.305Z,3.35
2022-08-30T04:31:06.291Z,4.78
2022-08-30T04:33:48.216Z,6.63
2022-08-30T04:36:15.853Z,8.38
2022-08-30T04:38:30.511Z,9.89
2022-08-30T04:40:28.920Z,11.5
2022-08-30T04:43:17.135Z,14.47
2022-08-30T04:45:31.675Z,17.25
2022-08-30T04:47:32.084Z,19.77
2022-08-30T04:50:21.084Z,23.41
2022-08-30T04:52:56.195Z,26.33
2022-08-30T04:55:20.158Z,29.42
2022-08-30T04:57:23.654Z,32.39
2022-08-30T05:00:19.151Z,37.25
2022-08-30T05:03:00.372Z,41.24
2022-08-30T05:05:27.544Z,44.78
2022-08-30T05:07:40.296Z,48.22
2022-08-30T05:09:39.053Z,50.32
2022-08-30T05:12:26.457Z,55.2
2022-08-30T05:14:59.653Z,59.34
2022-08-30T05:17:18.786Z,64.04
2022-08-30T05:19:23.707Z,68.44
2022-08-30T05:22:17.217Z,74.74
2022-08-30T05:24:56.694Z,79.4
2022-08-30T05:27:22.152Z,83.32
2022-08-30T05:29:33.069Z,85.28
2022-08-30T05:32:32.815Z,94.24
2022-08-30T05:35:21.194Z,97.12
2022-08-30T05:37:49.805Z,98.52
2022-08-30T05:40:10.175Z,106.84
2022-08-30T05:42:10.145Z,110.76
2022-08-30T05:45:01.853Z,115.08
2022-08-30T05:47:39.367Z,121.04
2022-08-30T05:50:02.840Z,131.04
2022-08-30T05:52:12.136Z,138.76
2022-08-30T05:55:09.980Z,147.68
2022-08-30T05:57:53.836Z,149.92
2022-08-30T06:00:23.115Z,154.36
2022-08-30T06:02:38.481Z,158
2022-08-30T06:04:39.873Z,164.4
2022-08-30T06:07:29.865Z,170.7
2022-08-30T06:10:05.630Z,175.6
2022-08-30T06:12:27.145Z,178.5
2022-08-30T06:14:34.670Z,183.9
2022-08-30T06:17:30.818Z,165.7
2022-08-30T06:20:12.709Z,194.8
2022-08-30T06:22:40.655Z,199.6
2022-08-30T06:24:57.201Z,209.9
2022-08-30T06:26:53.813Z,216.7
2022-08-30T06:29:42.124Z,224.1
2022-08-30T06:32:16.162Z,230.1
2022-08-30T06:34:35.988Z,243.6
2022-08-30T06:36:41.830Z,255.4
2022-08-30T06:39:36.293Z,257.4
2022-08-30T06:42:16.528Z,278.4
2022-08-30T06:44:42.438Z,292.1
2022-08-30T06:46:54.431Z,307.4
2022-08-30T06:48:52.150Z,310.2
2022-08-30T06:51:38.472Z,315.7
2022-08-30T06:54:11.899Z,292.5
2022-08-30T06:56:28.764Z,284.3
2022-08-30T06:58:32.640Z,285.9
2022-08-30T07:01:25.383Z,308.9
2022-08-30T07:06:27.975Z,348.1
2022-08-30T07:08:38.164Z,357.9
2022-08-30T07:11:37.004Z,350.2
2022-08-30T07:14:21.632Z,357.6
2022-08-30T07:16:52.204Z,309.5
2022-08-30T07:19:08.350Z,354.7
2022-08-30T07:21:10.503Z,318
2022-08-30T07:24:01.177Z,314.8
2022-08-30T07:26:37.908Z,341.7
2022-08-30T07:29:00.400Z,388.9
2022-08-30T07:34:05.755Z,420
2022-08-30T07:36:48.571Z,453.6
2022-08-30T07:39:17.216Z,446.4
2022-08-30T07:41:31.578Z,461.7
2022-08-30T07:43:31.980Z,469.4
2022-08-30T07:46:20.931Z,474.7
2022-08-30T07:48:55.604Z,443
2022-08-30T07:51:16.334Z,431.8
2022-08-30T07:53:22.868Z,405.2
2022-08-30T07:56:18.027Z,447.8
2022-08-30T07:58:59.149Z,441.6
2022-08-30T08:01:26.087Z,456.3
2022-08-30T08:03:38.733Z,460
2022-08-30T08:05:37.389Z,369.1
2022-08-30T08:08:24.587Z,510.7
2022-08-30T08:10:57.778Z,528
2022-08-30T08:13:16.418Z,528.1
2022-08-30T08:15:21.233Z,511.3
2022-08-30T08:18:14.599Z,424
2022-08-30T08:20:53.917Z,443
2022-08-30T08:23:18.828Z,469.2
2022-08-30T08:25:29.716Z,402.8
2022-08-30T08:28:29.093Z,464.1
2022-08-30T08:31:14.556Z,486.2
2022-08-30T08:33:45.754Z,517.1
2022-08-30T08:36:03.484Z,388.6
2022-08-30T08:38:05.747Z,374.8
2022-08-30T08:40:57.299Z,388.4
2022-08-30T08:43:34.598Z,377.6
2022-08-30T08:45:57.826Z,501.1
2022-08-30T08:48:06.819Z,561.2
2022-08-30T08:51:04.468Z,547.5
2022-08-30T08:53:47.915Z,498.8
2022-08-30T08:56:17.358Z,448.3
2022-08-30T08:58:32.611Z,360.1
2022-08-30T09:00:33.661Z,356
2022-08-30T09:03:23.432Z,614.8
2022-08-30T09:05:58.978Z,578.7
2022-08-30T09:08:20.411Z,594.5
2022-08-30T09:10:40.760Z,610.2
2022-08-30T09:13:23.617Z,615.2
2022-08-30T09:16:05.357Z,625.2
2022-08-30T09:18:32.821Z,630.7
2022-08-30T09:20:46.361Z,659.5
2022-08-30T09:22:46.653Z,691.8
2022-08-30T09:25:33.477Z,674.8
2022-08-30T09:28:07.302Z,648.3
2022-08-30T09:30:27.159Z,710
2022-08-30T09:32:32.424Z,685.4
2022-08-30T09:35:26.478Z,784.9
2022-08-30T09:38:06.469Z,774.7
2022-08-30T09:40:32.212Z,779.5
2022-08-30T09:42:43.984Z,747.5
2022-08-30T09:44:41.630Z,840.3
2022-08-30T09:47:27.903Z,823.3
2022-08-30T09:49:59.779Z,769.2
2022-08-30T09:52:17.793Z,869.7
2022-08-30T09:54:21.537Z,880.3
2022-08-30T09:57:13.861Z,889.6
2022-08-30T09:59:52.242Z,917.1
2022-08-30T10:02:16.535Z,840.9
2022-08-30T10:04:30.522Z,696
2022-08-30T10:07:28.859Z,920.9
2022-08-30T10:10:09.806Z,888.9
2022-08-30T10:12:40.191Z,950.4
2022-08-30T10:14:56.306Z,926.7
2022-08-30T10:16:58.449Z,962.2
2022-08-30T10:19:49.049Z,903
2022-08-30T10:22:25.426Z,965.1
2022-08-30T10:24:47.832Z,974.7
2022-08-30T10:26:56.055Z,950.4
2022-08-30T10:29:52.877Z,948.8
2022-08-30T10:32:35.831Z,940.8
2022-08-30T10:35:04.426Z,942
2022-08-30T10:37:18.772Z,934.4
2022-08-30T10:39:19.199Z,923.2
2022-08-30T10:42:08.167Z,926.7
2022-08-30T10:44:42.813Z,929.9
2022-08-30T10:47:03.280Z,940.1
2022-08-30T10:49:09.755Z,949.4
2022-08-30T10:52:04.756Z,967.3
2022-08-30T10:54:45.536Z,961.6
2022-08-30T10:57:12.323Z,972.1
2022-08-30T10:59:24.966Z,955.2
2022-08-30T11:01:26.794Z,968
2022-08-30T11:04:12.800Z,931.8
2022-08-30T11:06:43.454Z,971.5
2022-08-30T11:09:02.138Z,983.3
2022-08-30T11:11:06.904Z,1009.9
2022-08-30T11:14:03.589Z,1021.4
2022-08-30T11:16:39.063Z,1011.8
2022-08-30T11:19:03.967Z,1016
2022-08-30T11:21:14.898Z,1023.3
2022-08-30T11:24:14.313Z,1012.1
2022-08-30T11:26:59.464Z,959.3
2022-08-30T11:29:30.900Z,1021.7
2022-08-30T11:31:47.620Z,1029.1
2022-08-30T11:33:50.286Z,1036.8
2022-08-30T11:36:45.954Z,1041.9
2022-08-30T11:39:19.215Z,1033.6
2022-08-30T11:41:44.631Z,1033.9
2022-08-30T11:43:51.361Z,1022.4
2022-08-30T11:46:49.527Z,1017.9
2022-08-30T11:49:32.682Z,1028.8
2022-08-30T11:52:24.027Z,1028.1
2022-08-30T11:54:17.056Z,1019.2
2022-08-30T11:56:18.004Z,1029.1
2022-08-30T11:59:07.537Z,1024
2022-08-30T12:01:50.469Z,1019.8
2022-08-30T12:04:04.575Z,1032.9
2022-08-30T12:06:12.038Z,1040.9
2022-08-30T12:09:08.218Z,1047.6
2022-08-30T12:11:49.833Z,1065.9
2022-08-30T12:14:17.439Z,1046.4
2022-08-30T12:16:30.874Z,1045.7
2022-08-30T12:18:30.215Z,1042.2
2022-08-30T12:21:18.161Z,1035.2
2022-08-30T12:23:51.846Z,1039
2022-08-30T12:26:11.544Z,1038.7
2022-08-30T12:28:17.175Z,1041.2
2022-08-30T12:31:10.947Z,1028.4
2022-08-30T12:33:51.749Z,1026.8
2022-08-30T12:36:16.784Z,1019.8
2022-08-30T12:38:28.372Z,1022.4
2022-08-30T12:40:26.064Z,1024.3
2022-08-30T12:43:12.126Z,1020.8
2022-08-30T12:45:44.048Z,1015.3
2022-08-30T12:48:01.692Z,972.4
2022-08-30T12:50:05.417Z,981.4
2022-08-30T12:52:57.902Z,987.5
2022-08-30T12:55:35.670Z,997.7
2022-08-30T12:57:59.801Z,988.8
2022-08-30T13:00:09.500Z,990.4
2022-08-30T13:03:14.806Z,974.7
2022-08-30T13:05:52.983Z,901.4
2022-08-30T13:08:22.419Z,933.7
2022-08-30T13:10:37.979Z,1001.2
2022-08-30T13:12:39.879Z,1002.2
2022-08-30T13:18:06.477Z,976.3
2022-08-30T13:20:28.433Z,976.6
2022-08-30T13:22:36.485Z,805.1
2022-08-30T13:25:33.098Z,760.3
2022-08-30T13:28:15.217Z,970.2
2022-08-30T13:30:43.534Z,1054.4
2022-08-30T13:32:57.632Z,942.7
2022-08-30T13:34:57.521Z,785.6
2022-08-30T13:37:47.224Z,986.2
2022-08-30T13:40:20.683Z,998.7
2022-08-30T13:42:40.810Z,732.8
2022-08-30T13:44:47.784Z,489.9
2022-08-30T13:47:41.866Z,1015.6
2022-08-30T13:50:22.337Z,758
2022-08-30T13:52:48.718Z,651.6
2022-08-30T13:55:01.178Z,592.9
2022-08-30T13:56:59.343Z,751.3
2022-08-30T13:59:49.884Z,872.6
2022-08-30T14:02:18.795Z,381.1
2022-08-30T14:04:37.311Z,355.5
2022-08-30T14:09:34.643Z,599.6
2022-08-30T14:12:13.433Z,968.6
2022-08-30T14:14:42.962Z,645.1
2022-08-30T14:16:48.751Z,384.4
2022-08-30T14:19:47.914Z,424.4
2022-08-30T14:25:03.640Z,438.8
2022-08-30T14:27:20.396Z,811.2
2022-08-30T14:29:22.976Z,695.3
2022-08-30T14:32:14.048Z,805.1
2022-08-30T14:34:51.107Z,518.7
2022-08-30T14:37:14.015Z,492.1
2022-08-30T14:39:22.748Z,550.7
2022-08-30T14:42:20.178Z,481.6
2022-08-30T14:45:03.432Z,618.8
2022-08-30T14:47:32.487Z,360.1
2022-08-30T14:49:47.324Z,630.5
2022-08-30T14:51:48.202Z,464.3
2022-08-30T14:54:37.568Z,486
2022-08-30T14:57:12.771Z,525.7
2022-08-30T14:59:33.900Z,486.7
2022-08-30T15:01:40.927Z,472.3
2022-08-30T15:04:36.405Z,419.3
2022-08-30T15:07:17.884Z,419.5
2022-08-30T15:09:45.273Z,402.4
2022-08-30T15:11:58.596Z,372.3
2022-08-30T15:13:57.656Z,375.6
2022-08-30T15:16:45.304Z,384.4
2022-08-30T15:18:59.676Z,369.4
2022-08-30T15:20:59.846Z,314.6
2022-08-30T15:23:48.449Z,350.2
2022-08-30T15:26:23.116Z,326.4
2022-08-30T15:28:43.623Z,321
2022-08-30T15:30:49.916Z,327.3
2022-08-30T15:33:44.872Z,258.4
2022-08-30T15:36:25.712Z,262.6
2022-08-30T15:38:52.219Z,307.6
2022-08-30T15:41:04.904Z,356
2022-08-30T15:43:03.338Z,348.4
2022-08-30T15:45:50.688Z,229.2
2022-08-30T15:48:23.009Z,332.6
2022-08-30T15:50:41.833Z,332.1
2022-08-30T15:52:46.458Z,328
2022-08-30T15:55:39.569Z,310.1
2022-08-30T15:58:18.666Z,315
2022-08-30T16:00:45.023Z,320.7
2022-08-30T16:02:54.231Z,296.7
2022-08-30T16:05:53.697Z,225.7
2022-08-30T16:08:38.944Z,221
2022-08-30T16:11:09.892Z,196.7
2022-08-30T16:13:26.671Z,146.92
2022-08-30T16:15:29.492Z,144.44
2022-08-30T16:18:20.761Z,146.84
2022-08-30T16:20:58.073Z,145.08
2022-08-30T16:23:21.018Z,138.76
2022-08-30T16:25:39.798Z,129.72
2022-08-30T16:28:27.322Z,127.16
2022-08-30T16:31:10.822Z,138.4
2022-08-30T16:33:43.130Z,148.36
2022-08-30T16:35:55.207Z,151
2022-08-30T16:37:56.343Z,153.12
2022-08-30T16:40:45.914Z,160.96
2022-08-30T16:43:21.364Z,161.96
2022-08-30T16:45:42.562Z,164.8
2022-08-30T16:47:49.852Z,163.16
2022-08-30T16:50:45.607Z,155.12
2022-08-30T16:53:27.172Z,156.12
2022-08-30T16:55:54.732Z,178.3
2022-08-30T16:58:08.094Z,176.9
2022-08-30T17:00:07.290Z,176.2
2022-08-30T17:02:55.224Z,172
2022-08-30T17:05:29.251Z,168.8
2022-08-30T17:07:48.458Z,163.9
2022-08-30T17:09:54.001Z,160.68
2022-08-30T17:12:48.049Z,137.72
2022-08-30T17:15:28.185Z,132.72
2022-08-30T17:17:53.627Z,124.44
2022-08-30T17:20:05.342Z,113.56
2022-08-30T17:22:02.879Z,108.96
2022-08-30T17:24:48.906Z,108.32
2022-08-30T17:27:20.904Z,105.92
2022-08-30T17:29:38.715Z,98.72
2022-08-30T17:31:42.410Z,94.2
2022-08-30T17:34:34.703Z,85.8
2022-08-30T17:37:12.880Z,78.38
2022-08-30T17:39:36.844Z,66.06
2022-08-30T17:41:50.423Z,59.72
2022-08-30T17:44:45.284Z,51.64
2022-08-30T17:47:29.584Z,41.08
2022-08-30T17:50:00.961Z,35.19
2022-08-30T17:52:15.808Z,30.75
2022-08-30T17:54:17.836Z,27.67
2022-08-30T17:57:10.890Z,23.24
2022-08-30T17:59:44.882Z,19.32
2022-08-30T18:02:07.162Z,16.03
2022-08-30T18:04:15.199Z,14
2022-08-30T18:07:12.399Z,11.5
2022-08-30T18:09:54.600Z,9.18
2022-08-30T18:12:23.030Z,7.53
2022-08-30T18:14:38.629Z,6.35
2022-08-30T18:16:37.555Z,5.27
2022-08-30T18:19:26.415Z,3.93
2022-08-30T18:22:02.693Z,3.02
2022-08-30T18:24:21.744Z,2.31
2022-08-30T18:26:28.318Z,1.81
2022-08-30T18:29:26.451Z,1.23
2022-08-30T18:32:04.072Z,0.8
2022-08-30T18:34:30.820Z,0.55
2022-08-30T18:36:43.374Z,0.4
2022-08-30T18:38:42.520Z,0.29
2022-08-30T18:41:29.126Z,0.18
2022-08-30T18:44:24.233Z,0.13
2022-08-30T18:46:20.783Z,0.08
2022-08-30T18:48:27.305Z,0.06
2022-08-30T18:51:18.894Z,0.04
2022-08-30T18:53:57.976Z,0.03
2022-08-30T18:56:23.085Z,0.02
2022-08-30T19:01:33.457Z,0.01
2022-08-30T20:15:55.660Z,0
2022-08-30T20:27:30.442Z,0.01
2022-08-30T20:30:22.869Z,0
2022-08-30T23:55:52.288Z,0.01
2022-08-30T23:58:49.151Z,0
